Regina International Airport
CYQR : now visible

Airfield :











YOU CAN JOIN US ON...

 
LOGIN :

Register | Disclaimer

   EN    FR    IT 

 









Legend :    VFR   Marginal VFR   IFR   Intensive IFR   Very Intensive IFR
Visi :
Ceiling :
>= 8 km
>= 3000ft
5 to 8 km
1000 to 3000 ft
1500m to 5 km
500 to 1000 ft
800 to 1500m
200 to 500 ft
< 800m
< 200 ft
Symbols :   Thunderstorms  Fog  Heavy snow  Heavy precipitations  Wind > 20 kt






- Airport Elevation : 1894 ft
- IATA code : YQR


CYQR - Regina International

CURRENT METAR :
  • 161800Z 27023G31KT 15SM FEW050 FEW140 FEW250 14/00 A2973 RMK CU1AC1CI1 CU TR AC TR CI TR SLP083 DENSITY ALT 2500FT

EXPIRED METARs :
  • 161700Z 29022G31KT 15SM FEW140 13/00 A2974 RMK AC1 AC TR SLP085 DENSITY ALT 2300FT
  • 161600Z 27015G23KT 15SM FEW160 SCT250 12/00 A2974 RMK AC1CI2 SLP085 DENSITY ALT 2200FT

TAF TAF CYQR
Valid from the 16 at 18:00 until the 17 at 18:00 UTC


161738Z 1618/1718 29022G32KT P6SM FEW140
FM162100 28023G33KT P6SM SCT070
TEMPO 1621/1624 BKN070
FM170000 29023G33KT P6SM BKN070
BECMG 1702/1704 29015G25KT
FM170400 29013G23KT P6SM SCT100
TEMPO 1704/1707 BKN080
BECMG 1709/1711 27010KT RMK NXT FCST BY 170000Z
CZWG FIR / North America



MET'MAP, your aeronautical weather chart ! - Copyright ORBIFLY December 2007 - Disclaimer

ORBIFLY MET'MAP TEAM :

Programming & Development : Alexandra Zaïnal
Concept & original design : Baudouin d'Aumeries
Assistance for programming : Marc-Olivier Méhu
Technical & hardware support : Manuel Goepfert

Contact : metmap@orbifly.com




SOURCES & CREDITS :

   NOAA       Earth
Advisory